Dunedin, New Zealand
Current Conditions -  °F | °C
As of 12:00 AM on Wednesday 22 Oct 2014 (Local Time) from NZCH Reporting Station
Broken Clouds Broken Clouds  
Wind Chill: 46°   Ceiling: 6000
Heat Index: 46°   Visibility: 6mi
Dew Point: 41°   Wind: 3mph
Humidity: 81%   Direction: 250°WSW
Pressure: 30.21"   Gusts: NA
Location:  45.52°S, 170.3°E
Report Text: NZCH 211200Z AUTO 25003KT 9999 BKN060/// 08/05 Q1023 TEMPOBKN012
Loading
Personal Weather Stations






























Interactive Weather Map
Tropical Storm Tracking
New forecast layout! Learn more

10-Day Weather Forecast

Advertisements
Track Severe Weather on mobile